sensor_id;sensor_type;location;lat;lon;timestamp;pressure;altitude;pressure_sealevel;temperature;humidity
52361;BME280;38294;42.966;1.608;2023-02-18T03:53:29;98546.22;;;4.48;80.23
52361;BME280;38294;42.966;1.608;2023-02-18T03:55:55;98539.81;;;4.87;77.91
52361;BME280;38294;42.966;1.608;2023-02-18T03:58:20;98539.28;;;5.27;76.74
52361;BME280;38294;42.966;1.608;2023-02-18T04:00:46;98550.38;;;5.30;75.77
52361;BME280;38294;42.966;1.608;2023-02-18T04:03:12;98549.06;;;5.47;73.06
52361;BME280;38294;42.966;1.608;2023-02-18T04:05:38;98544.22;;;5.62;73.13
52361;BME280;38294;42.966;1.608;2023-02-18T04:08:03;98542.28;;;5.63;74.04
52361;BME280;38294;42.966;1.608;2023-02-18T04:10:30;98548.63;;;5.77;74.15
52361;BME280;38294;42.966;1.608;2023-02-18T04:12:55;98541.94;;;5.88;74.19
52361;BME280;38294;42.966;1.608;2023-02-18T04:15:21;98550.47;;;5.81;73.64
52361;BME280;38294;42.966;1.608;2023-02-18T04:17:46;98542.28;;;6.00;72.51
52361;BME280;38294;42.966;1.608;2023-02-18T04:20:12;98544.50;;;5.98;70.87
52361;BME280;38294;42.966;1.608;2023-02-18T04:22:37;98549.94;;;5.98;70.60
52361;BME280;38294;42.966;1.608;2023-02-18T04:25:03;98545.69;;;5.73;70.93
52361;BME280;38294;42.966;1.608;2023-02-18T04:27:29;98547.63;;;6.05;70.32
52361;BME280;38294;42.966;1.608;2023-02-18T04:29:54;98550.63;;;6.22;71.12
52361;BME280;38294;42.966;1.608;2023-02-18T04:32:20;98552.47;;;6.08;70.54
52361;BME280;38294;42.966;1.608;2023-02-18T04:34:45;98553.25;;;5.76;70.25
52361;BME280;38294;42.966;1.608;2023-02-18T04:37:11;98549.28;;;5.69;70.77
52361;BME280;38294;42.966;1.608;2023-02-18T04:39:36;98556.50;;;5.97;69.81
52361;BME280;38294;42.966;1.608;2023-02-18T04:42:02;98546.88;;;5.49;71.40
52361;BME280;38294;42.966;1.608;2023-02-18T04:44:34;98544.31;;;6.08;70.57
52361;BME280;38294;42.966;1.608;2023-02-18T04:47:00;98549.00;;;6.21;70.40
52361;BME280;38294;42.966;1.608;2023-02-18T04:49:25;98543.44;;;6.13;68.61
52361;BME280;38294;42.966;1.608;2023-02-18T04:51:51;98550.19;;;6.15;69.14
52361;BME280;38294;42.966;1.608;2023-02-18T04:54:16;98548.25;;;5.83;69.12
52361;BME280;38294;42.966;1.608;2023-02-18T04:56:42;98550.16;;;5.83;69.55
52361;BME280;38294;42.966;1.608;2023-02-18T04:59:07;98548.19;;;5.51;69.75
52361;BME280;38294;42.966;1.608;2023-02-18T05:01:33;98548.13;;;5.75;69.80
52361;BME280;38294;42.966;1.608;2023-02-18T05:03:59;98544.88;;;5.73;70.57
52361;BME280;38294;42.966;1.608;2023-02-18T05:06:24;98552.38;;;5.81;70.40
52361;BME280;38294;42.966;1.608;2023-02-18T05:08:50;98551.22;;;5.87;70.25
52361;BME280;38294;42.966;1.608;2023-02-18T05:11:15;98544.72;;;5.83;71.39
52361;BME280;38294;42.966;1.608;2023-02-18T05:13:41;98550.41;;;5.68;70.53
52361;BME280;38294;42.966;1.608;2023-02-18T05:16:06;98561.50;;;5.71;70.38
52361;BME280;38294;42.966;1.608;2023-02-18T05:18:32;98556.66;;;5.87;70.51
52361;BME280;38294;42.966;1.608;2023-02-18T05:20:57;98552.00;;;5.69;69.77
52361;BME280;38294;42.966;1.608;2023-02-18T05:23:23;98550.91;;;5.70;69.37
52361;BME280;38294;42.966;1.608;2023-02-18T05:25:50;98549.44;;;5.96;68.91
52361;BME280;38294;42.966;1.608;2023-02-18T05:28:16;98551.56;;;5.99;68.70
52361;BME280;38294;42.966;1.608;2023-02-18T05:30:41;98549.72;;;5.57;68.94
52361;BME280;38294;42.966;1.608;2023-02-18T05:33:07;98546.19;;;5.75;68.95
52361;BME280;38294;42.966;1.608;2023-02-18T05:35:32;98540.66;;;5.99;67.94
52361;BME280;38294;42.966;1.608;2023-02-18T05:37:58;98544.53;;;6.12;68.34
52361;BME280;38294;42.966;1.608;2023-02-18T05:40:23;98544.09;;;6.05;68.21
52361;BME280;38294;42.966;1.608;2023-02-18T05:42:49;98536.03;;;6.00;68.29
52361;BME280;38294;42.966;1.608;2023-02-18T05:45:14;98539.47;;;6.05;67.65
52361;BME280;38294;42.966;1.608;2023-02-18T05:47:40;98540.78;;;5.94;67.55
52361;BME280;38294;42.966;1.608;2023-02-18T05:50:06;98536.28;;;5.85;67.01
52361;BME280;38294;42.966;1.608;2023-02-18T05:52:32;98540.06;;;6.02;66.88
52361;BME280;38294;42.966;1.608;2023-02-18T05:54:57;98540.88;;;6.03;67.65
52361;BME280;38294;42.966;1.608;2023-02-18T05:57:23;98537.66;;;6.01;68.67
52361;BME280;38294;42.966;1.608;2023-02-18T05:59:49;98539.06;;;5.98;68.35
52361;BME280;38294;42.966;1.608;2023-02-18T06:02:14;98546.38;;;6.16;67.78
52361;BME280;38294;42.966;1.608;2023-02-18T06:04:40;98539.19;;;6.39;67.45
52361;BME280;38294;42.966;1.608;2023-02-18T06:07:06;98535.34;;;6.54;67.33
52361;BME280;38294;42.966;1.608;2023-02-18T06:09:31;98533.13;;;6.42;67.60
52361;BME280;38294;42.966;1.608;2023-02-18T06:11:57;98531.81;;;6.40;67.80
52361;BME280;38294;42.966;1.608;2023-02-18T06:14:23;98529.09;;;6.53;66.39
52361;BME280;38294;42.966;1.608;2023-02-18T06:16:48;98540.00;;;6.07;66.79
52361;BME280;38294;42.966;1.608;2023-02-18T06:19:14;98537.47;;;5.60;67.71
52361;BME280;38294;42.966;1.608;2023-02-18T06:21:39;98535.84;;;5.77;69.75
52361;BME280;38294;42.966;1.608;2023-02-18T06:24:05;98537.47;;;6.11;70.24
52361;BME280;38294;42.966;1.608;2023-02-18T06:26:31;98537.34;;;6.34;69.30
52361;BME280;38294;42.966;1.608;2023-02-18T06:28:57;98542.78;;;6.34;69.64
52361;BME280;38294;42.966;1.608;2023-02-18T06:31:22;98540.28;;;6.38;68.51
52361;BME280;38294;42.966;1.608;2023-02-18T06:33:48;98540.00;;;6.40;68.43
52361;BME280;38294;42.966;1.608;2023-02-18T06:36:14;98532.47;;;5.86;68.65
52361;BME280;38294;42.966;1.608;2023-02-18T06:38:41;98528.47;;;6.29;68.00
52361;BME280;38294;42.966;1.608;2023-02-18T06:41:07;98529.28;;;6.29;67.85
52361;BME280;38294;42.966;1.608;2023-02-18T06:43:33;98530.88;;;6.30;66.95
52361;BME280;38294;42.966;1.608;2023-02-18T06:45:59;98530.81;;;6.49;65.90
52361;BME280;38294;42.966;1.608;2023-02-18T06:48:24;98534.81;;;6.38;66.69
52361;BME280;38294;42.966;1.608;2023-02-18T06:50:50;98534.72;;;6.43;66.54
52361;BME280;38294;42.966;1.608;2023-02-18T06:53:15;98534.47;;;6.72;65.92
52361;BME280;38294;42.966;1.608;2023-02-18T06:55:44;98537.91;;;6.77;66.20
52361;BME280;38294;42.966;1.608;2023-02-18T06:58:11;98539.22;;;6.94;65.33
52361;BME280;38294;42.966;1.608;2023-02-18T07:00:37;98541.97;;;6.34;64.89
52361;BME280;38294;42.966;1.608;2023-02-18T07:03:03;98538.78;;;6.59;64.20
52361;BME280;38294;42.966;1.608;2023-02-18T07:05:29;98526.38;;;6.53;64.55
52361;BME280;38294;42.966;1.608;2023-02-18T07:07:54;98531.09;;;6.34;64.93
52361;BME280;38294;42.966;1.608;2023-02-18T07:10:20;98533.03;;;6.61;64.10
52361;BME280;38294;42.966;1.608;2023-02-18T07:12:46;98547.47;;;6.88;63.04
52361;BME280;38294;42.966;1.608;2023-02-18T07:15:12;98546.88;;;6.64;64.42
52361;BME280;38294;42.966;1.608;2023-02-18T07:17:37;98552.31;;;6.64;64.16
52361;BME280;38294;42.966;1.608;2023-02-18T07:20:04;98546.16;;;6.72;64.16
52361;BME280;38294;42.966;1.608;2023-02-18T07:22:30;98544.16;;;6.78;64.82
52361;BME280;38294;42.966;1.608;2023-02-18T07:24:55;98555.75;;;6.83;64.79
52361;BME280;38294;42.966;1.608;2023-02-18T07:27:21;98548.88;;;7.13;64.13
52361;BME280;38294;42.966;1.608;2023-02-18T07:29:47;98547.75;;;7.14;64.06
52361;BME280;38294;42.966;1.608;2023-02-18T07:32:15;98548.88;;;7.27;63.38
52361;BME280;38294;42.966;1.608;2023-02-18T07:34:41;98554.41;;;7.08;63.31
52361;BME280;38294;42.966;1.608;2023-02-18T07:37:06;98543.78;;;7.34;62.42
52361;BME280;38294;42.966;1.608;2023-02-18T07:39:43;98545.69;;;7.47;63.24
52361;BME280;38294;42.966;1.608;2023-02-18T07:42:10;98547.34;;;7.70;62.37
52361;BME280;38294;42.966;1.608;2023-02-18T07:44:36;98551.69;;;7.08;63.39
52361;BME280;38294;42.966;1.608;2023-02-18T07:47:04;98546.16;;;7.27;62.85
52361;BME280;38294;42.966;1.608;2023-02-18T07:49:30;98547.66;;;7.19;63.03
52361;BME280;38294;42.966;1.608;2023-02-18T07:51:56;98544.78;;;7.52;61.57
52361;BME280;38294;42.966;1.608;2023-02-18T07:54:21;98545.53;;;7.66;59.90
52361;BME280;38294;42.966;1.608;2023-02-18T07:56:47;98540.78;;;7.93;59.42
52361;BME280;38294;42.966;1.608;2023-02-18T07:59:12;98531.03;;;8.46;58.83
52361;BME280;38294;42.966;1.608;2023-02-18T08:01:39;98551.56;;;8.74;58.95
52361;BME280;38294;42.966;1.608;2023-02-18T08:04:06;98545.72;;;8.98;58.12
52361;BME280;38294;42.966;1.608;2023-02-18T08:06:52;98539.91;;;9.56;56.99
52361;BME280;38294;42.966;1.608;2023-02-18T08:09:18;98534.16;;;9.09;56.65
52361;BME280;38294;42.966;1.608;2023-02-18T08:11:43;98537.63;;;8.84;58.12
52361;BME280;38294;42.966;1.608;2023-02-18T08:14:09;98530.63;;;9.00;56.78
52361;BME280;38294;42.966;1.608;2023-02-18T08:16:35;98535.50;;;9.29;55.73
52361;BME280;38294;42.966;1.608;2023-02-18T08:19:01;98541.00;;;9.63;54.21
52361;BME280;38294;42.966;1.608;2023-02-18T08:21:27;98545.38;;;9.90;52.20
52361;BME280;38294;42.966;1.608;2023-02-18T08:23:53;98542.16;;;9.79;52.03
52361;BME280;38294;42.966;1.608;2023-02-18T08:26:19;98541.50;;;10.25;50.59
52361;BME280;38294;42.966;1.608;2023-02-18T08:28:46;98538.16;;;10.75;50.32
52361;BME280;38294;42.966;1.608;2023-02-18T08:31:26;98539.84;;;11.26;49.44
52361;BME280;38294;42.966;1.608;2023-02-18T08:33:54;98540.78;;;11.00;50.27
52361;BME280;38294;42.966;1.608;2023-02-18T08:36:20;98536.63;;;10.94;49.74
52361;BME280;38294;42.966;1.608;2023-02-18T08:38:46;98536.38;;;10.70;50.94
52361;BME280;38294;42.966;1.608;2023-02-18T08:41:12;98525.00;;;10.60;50.10
52361;BME280;38294;42.966;1.608;2023-02-18T08:43:39;98525.97;;;10.93;49.33
52361;BME280;38294;42.966;1.608;2023-02-18T08:46:04;98532.28;;;11.23;48.54
52361;BME280;38294;42.966;1.608;2023-02-18T08:48:30;98534.09;;;11.69;47.08
52361;BME280;38294;42.966;1.608;2023-02-18T08:50:56;98537.47;;;11.95;46.42
52361;BME280;38294;42.966;1.608;2023-02-18T08:53:22;98536.38;;;11.87;47.41
52361;BME280;38294;42.966;1.608;2023-02-18T08:55:47;98541.72;;;12.04;47.61
52361;BME280;38294;42.966;1.608;2023-02-18T08:58:13;98542.38;;;12.22;47.12
52361;BME280;38294;42.966;1.608;2023-02-18T09:00:40;98535.59;;;12.20;46.85
52361;BME280;38294;42.966;1.608;2023-02-18T09:03:06;98541.06;;;12.40;45.51
52361;BME280;38294;42.966;1.608;2023-02-18T09:05:32;98536.56;;;12.81;44.82
52361;BME280;38294;42.966;1.608;2023-02-18T09:07:57;98536.13;;;13.03;43.67
52361;BME280;38294;42.966;1.608;2023-02-18T09:10:23;98532.50;;;13.23;43.46
52361;BME280;38294;42.966;1.608;2023-02-18T09:12:49;98535.22;;;13.47;43.04
52361;BME280;38294;42.966;1.608;2023-02-18T09:15:15;98531.53;;;13.55;43.42
52361;BME280;38294;42.966;1.608;2023-02-18T09:17:40;98532.47;;;13.35;43.07
52361;BME280;38294;42.966;1.608;2023-02-18T09:20:07;98528.81;;;14.23;42.15
52361;BME280;38294;42.966;1.608;2023-02-18T09:22:32;98527.56;;;14.20;40.81
52361;BME280;38294;42.966;1.608;2023-02-18T09:24:58;98528.53;;;14.40;39.76
52361;BME280;38294;42.966;1.608;2023-02-18T09:27:24;98533.91;;;14.64;39.72
52361;BME280;38294;42.966;1.608;2023-02-18T09:29:50;98528.88;;;14.82;39.29
52361;BME280;38294;42.966;1.608;2023-02-18T09:32:16;98519.91;;;14.57;39.21
52361;BME280;38294;42.966;1.608;2023-02-18T09:34:43;98517.72;;;14.79;38.98
52361;BME280;38294;42.966;1.608;2023-02-18T09:37:09;98520.75;;;15.05;39.16
52361;BME280;38294;42.966;1.608;2023-02-18T09:39:35;98524.38;;;15.40;40.39
52361;BME280;38294;42.966;1.608;2023-02-18T09:42:03;98527.25;;;15.98;40.03
52361;BME280;38294;42.966;1.608;2023-02-18T09:47:05;98512.41;;;15.87;39.59
52361;BME280;38294;42.966;1.608;2023-02-18T09:49:39;98516.91;;;16.33;38.95
52361;BME280;38294;42.966;1.608;2023-02-18T09:52:11;98517.44;;;16.80;38.19
52361;BME280;38294;42.966;1.608;2023-02-18T09:54:37;98511.66;;;16.89;37.23
52361;BME280;38294;42.966;1.608;2023-02-18T09:57:04;98518.03;;;17.16;36.85
52361;BME280;38294;42.966;1.608;2023-02-18T09:59:31;98510.06;;;16.65;37.04
52361;BME280;38294;42.966;1.608;2023-02-18T10:01:57;98505.44;;;17.18;36.31
52361;BME280;38294;42.966;1.608;2023-02-18T10:04:44;98512.97;;;17.70;36.00
52361;BME280;38294;42.966;1.608;2023-02-18T10:07:32;98503.66;;;17.07;36.70
52361;BME280;38294;42.966;1.608;2023-02-18T10:10:04;98510.19;;;16.53;38.32
52361;BME280;38294;42.966;1.608;2023-02-18T10:12:33;98497.47;;;17.17;36.10
52361;BME280;38294;42.966;1.608;2023-02-18T10:15:00;98497.56;;;18.03;34.66
52361;BME280;38294;42.966;1.608;2023-02-18T10:17:29;98498.59;;;18.24;33.44
52361;BME280;38294;42.966;1.608;2023-02-18T10:19:57;98489.25;;;18.03;32.88
52361;BME280;38294;42.966;1.608;2023-02-18T10:22:24;98491.97;;;18.69;32.36
52361;BME280;38294;42.966;1.608;2023-02-18T10:24:58;98484.34;;;18.59;32.04
52361;BME280;38294;42.966;1.608;2023-02-18T10:27:31;98477.44;;;18.09;32.39
52361;BME280;38294;42.966;1.608;2023-02-18T10:30:20;98469.72;;;19.10;31.49
52361;BME280;38294;42.966;1.608;2023-02-18T10:32:46;98467.75;;;19.14;31.17
52361;BME280;38294;42.966;1.608;2023-02-18T10:35:36;98466.72;;;19.36;31.13
52361;BME280;38294;42.966;1.608;2023-02-18T10:40:44;98469.44;;;19.90;30.05
52361;BME280;38294;42.966;1.608;2023-02-18T10:51:20;98451.00;;;20.51;29.23
52361;BME280;38294;42.966;1.608;2023-02-18T10:53:47;98446.63;;;20.71;28.95
52361;BME280;38294;42.966;1.608;2023-02-18T10:56:40;98442.66;;;20.65;29.35
52361;BME280;38294;42.966;1.608;2023-02-18T10:59:17;98447.06;;;20.77;28.96
52361;BME280;38294;42.966;1.608;2023-02-18T11:01:44;98443.03;;;20.74;28.85
52361;BME280;38294;42.966;1.608;2023-02-18T11:04:17;98448.88;;;20.13;30.28
52361;BME280;38294;42.966;1.608;2023-02-18T11:06:51;98437.47;;;20.74;29.68
52361;BME280;38294;42.966;1.608;2023-02-18T11:17:33;98424.75;;;20.98;29.95
52361;BME280;38294;42.966;1.608;2023-02-18T11:20:19;98423.47;;;20.25;32.05
52361;BME280;38294;42.966;1.608;2023-02-18T11:22:45;98429.84;;;20.25;32.05
52361;BME280;38294;42.966;1.608;2023-02-18T11:27:54;98421.94;;;20.34;33.42
52361;BME280;38294;42.966;1.608;2023-02-18T11:32:50;98418.38;;;20.37;34.44
52361;BME280;38294;42.966;1.608;2023-02-18T11:35:19;98410.06;;;20.76;34.74
52361;BME280;38294;42.966;1.608;2023-02-18T11:37:45;98403.47;;;19.87;36.40
52361;BME280;38294;42.966;1.608;2023-02-18T11:40:21;98387.78;;;20.87;35.23
52361;BME280;38294;42.966;1.608;2023-02-18T11:42:48;98394.13;;;20.59;35.68
52361;BME280;38294;42.966;1.608;2023-02-18T11:45:31;98380.81;;;21.69;34.71
52361;BME280;38294;42.966;1.608;2023-02-18T11:48:07;98385.75;;;21.05;36.45
52361;BME280;38294;42.966;1.608;2023-02-18T11:50:34;98379.81;;;20.92;37.18
52361;BME280;38294;42.966;1.608;2023-02-18T11:53:00;98384.94;;;21.05;36.53
52361;BME280;38294;42.966;1.608;2023-02-18T11:55:59;98373.03;;;21.11;37.01
52361;BME280;38294;42.966;1.608;2023-02-18T11:58:26;98370.97;;;21.43;36.81
52361;BME280;38294;42.966;1.608;2023-02-18T12:00:55;98372.00;;;21.81;36.49
52361;BME280;38294;42.966;1.608;2023-02-18T12:03:49;98355.34;;;21.64;36.74
52361;BME280;38294;42.966;1.608;2023-02-18T12:06:22;98361.44;;;21.37;37.17
52361;BME280;38294;42.966;1.608;2023-02-18T12:08:57;98353.44;;;21.39;37.33
52361;BME280;38294;42.966;1.608;2023-02-18T12:11:54;98344.38;;;22.08;36.12
52361;BME280;38294;42.966;1.608;2023-02-18T12:14:20;98342.69;;;21.49;36.89
52361;BME280;38294;42.966;1.608;2023-02-18T12:17:25;98338.75;;;22.19;35.85
52361;BME280;38294;42.966;1.608;2023-02-18T12:20:36;98337.38;;;22.41;35.95
52361;BME280;38294;42.966;1.608;2023-02-18T12:31:37;98314.41;;;22.23;36.26
52361;BME280;38294;42.966;1.608;2023-02-18T12:39:45;98302.66;;;21.83;36.74
52361;BME280;38294;42.966;1.608;2023-02-18T12:42:54;98304.97;;;21.99;36.46
52361;BME280;38294;42.966;1.608;2023-02-18T12:54:00;98288.22;;;22.54;35.48
52361;BME280;38294;42.966;1.608;2023-02-18T12:56:55;98282.25;;;22.01;35.48
52361;BME280;38294;42.966;1.608;2023-02-18T13:05:09;98273.38;;;22.16;34.72
52361;BME280;38294;42.966;1.608;2023-02-18T13:18:00;98257.88;;;22.97;32.91
52361;BME280;38294;42.966;1.608;2023-02-18T13:22:59;98246.75;;;23.24;32.04
52361;BME280;38294;42.966;1.608;2023-02-18T13:25:24;98247.09;;;22.95;32.10
52361;BME280;38294;42.966;1.608;2023-02-18T13:30:26;98236.81;;;23.23;30.48
52361;BME280;38294;42.966;1.608;2023-02-18T13:39:08;98222.72;;;22.99;31.20
52361;BME280;38294;42.966;1.608;2023-02-18T13:41:41;98213.06;;;22.70;30.96
52361;BME280;38294;42.966;1.608;2023-02-18T13:46:48;98212.28;;;22.70;31.86
52361;BME280;38294;42.966;1.608;2023-02-18T13:51:49;98206.44;;;22.91;31.24
52361;BME280;38294;42.966;1.608;2023-02-18T13:54:28;98192.66;;;23.41;31.20
52361;BME280;38294;42.966;1.608;2023-02-18T13:57:02;98196.72;;;23.02;32.07
52361;BME280;38294;42.966;1.608;2023-02-18T13:59:34;98201.00;;;23.11;32.34
52361;BME280;38294;42.966;1.608;2023-02-18T14:10:03;98201.72;;;22.84;33.27
52361;BME280;38294;42.966;1.608;2023-02-18T14:12:42;98187.59;;;22.61;33.70
52361;BME280;38294;42.966;1.608;2023-02-18T14:18:09;98190.59;;;23.45;32.60
52361;BME280;38294;42.966;1.608;2023-02-18T14:20:47;98188.88;;;22.53;34.52
52361;BME280;38294;42.966;1.608;2023-02-18T14:28:48;98185.03;;;22.40;34.87
52361;BME280;38294;42.966;1.608;2023-02-18T14:36:39;98184.97;;;22.43;35.71
52361;BME280;38294;42.966;1.608;2023-02-18T14:39:47;98183.97;;;22.64;35.37
52361;BME280;38294;42.966;1.608;2023-02-18T14:42:41;98181.25;;;22.57;35.70
52361;BME280;38294;42.966;1.608;2023-02-18T14:50:36;98176.47;;;22.17;36.57
52361;BME280;38294;42.966;1.608;2023-02-18T14:53:10;98177.91;;;22.35;36.48
52361;BME280;38294;42.966;1.608;2023-02-18T14:55:47;98171.81;;;22.03;36.91
52361;BME280;38294;42.966;1.608;2023-02-18T15:00:55;98166.75;;;22.35;36.19
52361;BME280;38294;42.966;1.608;2023-02-18T15:03:20;98164.81;;;22.29;36.02
52361;BME280;38294;42.966;1.608;2023-02-18T15:05:48;98171.91;;;21.92;36.18
52361;BME280;38294;42.966;1.608;2023-02-18T15:08:24;98169.78;;;22.07;36.39
52361;BME280;38294;42.966;1.608;2023-02-18T15:10:59;98165.41;;;22.47;36.17
52361;BME280;38294;42.966;1.608;2023-02-18T15:13:32;98161.38;;;21.56;37.35
52361;BME280;38294;42.966;1.608;2023-02-18T15:16:01;98165.91;;;21.94;37.45
52361;BME280;38294;42.966;1.608;2023-02-18T15:18:35;98157.53;;;21.94;37.25
52361;BME280;38294;42.966;1.608;2023-02-18T15:21:04;98159.06;;;22.02;37.46
52361;BME280;38294;42.966;1.608;2023-02-18T15:23:34;98162.38;;;21.86;37.79
52361;BME280;38294;42.966;1.608;2023-02-18T15:26:00;98158.06;;;21.75;37.96
52361;BME280;38294;42.966;1.608;2023-02-18T15:28:28;98156.69;;;22.01;37.90
52361;BME280;38294;42.966;1.608;2023-02-18T15:30:56;98161.00;;;22.09;38.05
52361;BME280;38294;42.966;1.608;2023-02-18T15:33:22;98162.41;;;21.21;38.94
52361;BME280;38294;42.966;1.608;2023-02-18T15:35:48;98158.19;;;21.61;38.40
52361;BME280;38294;42.966;1.608;2023-02-18T15:38:20;98162.38;;;21.28;39.54
52361;BME280;38294;42.966;1.608;2023-02-18T15:40:51;98155.63;;;21.25;39.35
52361;BME280;38294;42.966;1.608;2023-02-18T15:43:21;98160.16;;;20.87;40.33
52361;BME280;38294;42.966;1.608;2023-02-18T15:45:50;98157.28;;;21.09;39.96
52361;BME280;38294;42.966;1.608;2023-02-18T15:48:35;98164.75;;;21.29;39.96
52361;BME280;38294;42.966;1.608;2023-02-18T15:51:04;98148.59;;;20.92;40.49
52361;BME280;38294;42.966;1.608;2023-02-18T15:53:31;98145.72;;;21.17;39.98
52361;BME280;38294;42.966;1.608;2023-02-18T15:56:05;98146.66;;;21.55;39.20
52361;BME280;38294;42.966;1.608;2023-02-18T15:58:31;98148.38;;;21.38;39.36
52361;BME280;38294;42.966;1.608;2023-02-18T16:01:03;98141.75;;;21.15;40.04
52361;BME280;38294;42.966;1.608;2023-02-18T16:03:36;98131.41;;;21.08;40.33
52361;BME280;38294;42.966;1.608;2023-02-18T16:06:22;98141.63;;;21.36;39.16
52361;BME280;38294;42.966;1.608;2023-02-18T16:11:25;98136.09;;;21.29;39.35
52361;BME280;38294;42.966;1.608;2023-02-18T16:13:52;98136.66;;;20.92;40.05
52361;BME280;38294;42.966;1.608;2023-02-18T16:16:27;98136.28;;;20.93;40.48
52361;BME280;38294;42.966;1.608;2023-02-18T16:18:54;98141.09;;;20.79;40.66
52361;BME280;38294;42.966;1.608;2023-02-18T16:23:52;98142.94;;;21.14;40.27
52361;BME280;38294;42.966;1.608;2023-02-18T16:28:50;98140.00;;;20.55;41.61
52361;BME280;38294;42.966;1.608;2023-02-18T16:31:16;98137.72;;;20.29;42.10
52361;BME280;38294;42.966;1.608;2023-02-18T16:33:42;98138.09;;;20.34;42.29
52361;BME280;38294;42.966;1.608;2023-02-18T16:36:14;98132.75;;;20.82;41.48
52361;BME280;38294;42.966;1.608;2023-02-18T16:38:42;98137.06;;;20.90;41.28
52361;BME280;38294;42.966;1.608;2023-02-18T16:41:10;98136.81;;;20.53;42.33
52361;BME280;38294;42.966;1.608;2023-02-18T16:43:36;98140.06;;;20.20;42.79
52361;BME280;38294;42.966;1.608;2023-02-18T16:46:12;98139.50;;;20.78;41.89
52361;BME280;38294;42.966;1.608;2023-02-18T16:48:41;98134.06;;;20.42;42.78
52361;BME280;38294;42.966;1.608;2023-02-18T16:51:17;98142.81;;;20.48;42.61
52361;BME280;38294;42.966;1.608;2023-02-18T16:53:45;98142.84;;;20.27;42.89
52361;BME280;38294;42.966;1.608;2023-02-18T16:56:16;98142.88;;;19.95;43.98
52361;BME280;38294;42.966;1.608;2023-02-18T16:58:42;98147.25;;;20.28;43.37
52361;BME280;38294;42.966;1.608;2023-02-18T17:01:24;98144.09;;;19.76;44.72
52361;BME280;38294;42.966;1.608;2023-02-18T17:03:51;98141.31;;;19.73;44.56
52361;BME280;38294;42.966;1.608;2023-02-18T17:06:17;98140.50;;;19.58;44.89
52361;BME280;38294;42.966;1.608;2023-02-18T17:08:43;98150.44;;;19.42;44.88
52361;BME280;38294;42.966;1.608;2023-02-18T17:11:48;98150.84;;;19.79;44.76
52361;BME280;38294;42.966;1.608;2023-02-18T17:14:05;98157.00;;;18.95;46.20
52361;BME280;38294;42.966;1.608;2023-02-18T17:16:31;98150.34;;;19.24;45.47
52361;BME280;38294;42.966;1.608;2023-02-18T17:18:56;98156.97;;;18.84;46.43
52361;BME280;38294;42.966;1.608;2023-02-18T17:21:23;98161.81;;;19.08;46.64
52361;BME280;38294;42.966;1.608;2023-02-18T17:23:50;98174.81;;;18.79;46.98
52361;BME280;38294;42.966;1.608;2023-02-18T17:26:24;98164.91;;;18.82;46.86
52361;BME280;38294;42.966;1.608;2023-02-18T17:28:51;98164.81;;;18.57;47.86
52361;BME280;38294;42.966;1.608;2023-02-18T17:31:20;98171.13;;;18.61;47.76
52361;BME280;38294;42.966;1.608;2023-02-18T17:33:48;98169.16;;;18.62;47.21
52361;BME280;38294;42.966;1.608;2023-02-18T17:36:14;98167.31;;;18.94;46.25
52361;BME280;38294;42.966;1.608;2023-02-18T17:38:40;98169.63;;;18.67;46.60
52361;BME280;38294;42.966;1.608;2023-02-18T17:41:06;98165.19;;;18.59;46.90
52361;BME280;38294;42.966;1.608;2023-02-18T17:43:32;98164.41;;;18.59;46.68
52361;BME280;38294;42.966;1.608;2023-02-18T17:45:58;98173.66;;;18.19;47.18
52361;BME280;38294;42.966;1.608;2023-02-18T17:48:24;98175.41;;;18.48;46.92
52361;BME280;38294;42.966;1.608;2023-02-18T17:50:50;98175.84;;;18.50;46.69
52361;BME280;38294;42.966;1.608;2023-02-18T17:53:16;98188.88;;;18.46;46.79
52361;BME280;38294;42.966;1.608;2023-02-18T17:55:43;98186.38;;;18.27;47.50
52361;BME280;38294;42.966;1.608;2023-02-18T17:58:11;98192.00;;;17.43;48.26
52361;BME280;38294;42.966;1.608;2023-02-18T18:00:42;98195.88;;;17.75;48.09
52361;BME280;38294;42.966;1.608;2023-02-18T18:03:10;98204.56;;;17.70;47.38
52361;BME280;38294;42.966;1.608;2023-02-18T18:05:39;98202.41;;;17.19;48.37
52361;BME280;38294;42.966;1.608;2023-02-18T18:08:05;98195.00;;;17.67;47.07
52361;BME280;38294;42.966;1.608;2023-02-18T18:10:34;98211.59;;;17.60;47.42
52361;BME280;38294;42.966;1.608;2023-02-18T18:13:14;98218.44;;;17.37;48.24
52361;BME280;38294;42.966;1.608;2023-02-18T18:15:42;98220.94;;;17.49;47.21
52361;BME280;38294;42.966;1.608;2023-02-18T18:18:11;98217.91;;;17.57;47.78
52361;BME280;38294;42.966;1.608;2023-02-18T18:20:38;98225.22;;;17.43;47.43
52361;BME280;38294;42.966;1.608;2023-02-18T18:23:06;98217.66;;;17.03;48.17
52361;BME280;38294;42.966;1.608;2023-02-18T18:25:36;98218.84;;;17.02;48.09
52361;BME280;38294;42.966;1.608;2023-02-18T18:28:03;98228.41;;;16.52;48.78
52361;BME280;38294;42.966;1.608;2023-02-18T18:30:31;98224.34;;;16.98;47.81
52361;BME280;38294;42.966;1.608;2023-02-18T18:32:58;98230.88;;;16.83;47.74
52361;BME280;38294;42.966;1.608;2023-02-18T18:35:32;98238.34;;;17.12;47.51
52361;BME280;38294;42.966;1.608;2023-02-18T18:37:59;98243.03;;;16.52;48.37
52361;BME280;38294;42.966;1.608;2023-02-18T18:40:27;98250.00;;;16.65;48.45
52361;BME280;38294;42.966;1.608;2023-02-18T18:42:54;98247.56;;;16.60;48.34
52361;BME280;38294;42.966;1.608;2023-02-18T18:45:22;98247.94;;;16.10;49.19
52361;BME280;38294;42.966;1.608;2023-02-18T18:47:48;98251.56;;;16.14;49.55
52361;BME280;38294;42.966;1.608;2023-02-18T18:50:14;98250.22;;;16.04;49.26
52361;BME280;38294;42.966;1.608;2023-02-18T18:52:40;98247.22;;;15.90;50.50
52361;BME280;38294;42.966;1.608;2023-02-18T18:55:29;98250.00;;;16.65;50.25
52361;BME280;38294;42.966;1.608;2023-02-18T18:57:55;98253.91;;;16.38;49.58
52361;BME280;38294;42.966;1.608;2023-02-18T19:00:30;98261.50;;;16.45;49.45
52361;BME280;38294;42.966;1.608;2023-02-18T19:02:56;98254.59;;;16.05;50.22
52361;BME280;38294;42.966;1.608;2023-02-18T19:05:28;98256.50;;;15.79;50.53
52361;BME280;38294;42.966;1.608;2023-02-18T19:07:55;98273.66;;;15.68;50.88